Time;durP1;ratioP1;P1;durP2;ratioP2;P2;SDS_P1;SDS_P2;PMS_P1;PMS_P2;Temp;Humidity;BMP_temperature;BMP_pressure;BME280_temperature;BME280_humidity;BME280_pressure;Samples;Min_cycle;Max_cycle;Signal;HPM_P1;HPM_P2
2022/03/30 00:01:08;;;;;;;;;;;7.10;99.90;;;;;;5093649;28;20488;-61
2022/03/30 00:03:33;;;;;;;40.25;15.35;;;7.00;99.90;;;;;;5093192;28;19927;-61
2022/03/30 00:05:59;;;;;;;40.80;15.63;;;5.90;99.90;;;;;;5093495;28;20044;-61
2022/03/30 00:08:25;;;;;;;35.75;15.63;;;6.00;99.90;;;;;;5093095;28;20527;-61
2022/03/30 00:10:51;;;;;;;41.33;15.55;;;7.60;99.90;;;;;;5093035;28;20040;-61
2022/03/30 00:13:17;;;;;;;40.40;15.80;;;6.90;99.90;;;;;;5093107;28;20133;-61
2022/03/30 00:15:44;;;;;;;35.08;16.13;;;6.00;99.90;;;;;;5092798;28;20538;-61
2022/03/30 00:18:10;;;;;;;39.28;15.68;;;7.60;99.90;;;;;;5092994;28;20040;-61
2022/03/30 00:20:36;;;;;;;38.00;16.73;;;6.10;99.90;;;;;;5092916;28;20456;-61
2022/03/30 00:23:01;;;;;;;33.90;15.18;;;7.50;99.90;;;;;;5092954;28;20048;-61
2022/03/30 00:25:27;;;;;;;35.15;15.80;;;6.20;99.90;;;;;;5093228;28;20052;-61
2022/03/30 00:27:53;;;;;;;42.63;16.00;;;8.40;99.90;;;;;;5092896;28;20043;-62
2022/03/30 00:30:20;;;;;;;41.75;16.73;;;7.60;99.90;;;;;;5092793;28;20043;-64
2022/03/30 00:32:46;;;;;;;34.20;15.45;;;6.60;99.90;;;;;;5092609;28;20101;-61
2022/03/30 00:35:13;;;;;;;;;;;6.30;99.90;;;;;;5093276;28;20054;-61
2022/03/30 00:37:39;;;;;;;42.85;16.80;;;6.20;99.90;;;;;;5092735;28;19928;-61
2022/03/30 00:40:07;;;;;;;42.42;17.33;;;7.40;99.90;;;;;;5091395;28;20119;-61
2022/03/30 00:42:33;;;;;;;37.70;15.18;;;6.00;99.90;;;;;;5092403;28;20050;-62
2022/03/30 00:45:08;;;;;;;36.15;16.02;;;6.30;99.90;;;;;;5091336;28;20052;-61
2022/03/30 00:47:34;;;;;;;40.92;16.52;;;7.40;99.90;;;;;;5092666;28;20055;-61
2022/03/30 00:50:00;;;;;;;43.65;17.27;;;6.80;99.90;;;;;;5092257;28;20555;-61
2022/03/30 00:52:25;;;;;;;35.40;14.45;;;6.30;99.90;;;;;;5092357;28;20131;-60
2022/03/30 00:54:51;;;;;;;30.77;11.93;;;6.50;99.90;;;;;;5092649;28;20056;-61
2022/03/30 00:57:22;;;;;;;24.27;10.05;;;6.50;99.90;;;;;;5092583;28;20127;-61
2022/03/30 00:59:48;;;;;;;18.42;8.77;;;6.20;99.90;;;;;;5092791;28;20091;-61
2022/03/30 01:02:14;;;;;;;17.98;7.15;;;6.40;99.90;;;;;;5092632;28;20104;-62
2022/03/30 01:04:40;;;;;;;15.85;6.50;;;6.50;99.90;;;;;;5092600;28;20044;-61
2022/03/30 01:07:06;;;;;;;15.70;6.32;;;6.30;99.90;;;;;;5091400;28;20386;-60
2022/03/30 01:09:32;;;;;;;12.23;6.50;;;6.90;99.90;;;;;;5092407;28;20040;-61
2022/03/30 01:11:58;;;;;;;16.67;6.65;;;6.60;99.90;;;;;;5092655;28;20122;-61
2022/03/30 01:14:25;;;;;;;12.15;6.85;;;7.80;99.90;;;;;;5092443;28;20052;-61
2022/03/30 01:16:51;;;;;;;11.95;6.03;;;6.90;99.90;;;;;;5092382;28;20056;-62
2022/03/30 01:19:17;;;;;;;12.77;5.40;;;6.30;99.90;;;;;;5092373;28;20048;-61
2022/03/30 01:21:43;;;;;;;;;;;7.40;99.90;;;;;;5092748;28;20041;-61
2022/03/30 01:24:12;;;;;;;7.53;2.50;;;6.50;99.90;;;;;;5091274;28;19970;-62
2022/03/30 01:26:39;;;;;;;7.43;2.28;;;6.30;99.90;;;;;;5092366;28;20264;-61
2022/03/30 01:32:25;;;;;;;4.70;1.83;;;7.80;99.90;;;;;;5091273;28;20123;-62
2022/03/30 01:34:36;;;;;;;9.63;2.50;;;7.60;99.90;;;;;;5092401;28;20066;-61
2022/03/30 01:37:03;;;;;;;7.45;2.85;;;7.30;99.90;;;;;;5090676;28;20040;-61
2022/03/30 01:39:29;;;;;;;4.85;2.25;;;6.10;99.90;;;;;;5092138;28;20044;-62
2022/03/30 01:41:55;;;;;;;4.88;2.20;;;7.20;99.90;;;;;;5092207;28;20043;-62
2022/03/30 01:44:21;;;;;;;3.30;1.60;;;7.60;99.90;;;;;;5091892;28;20430;-61
2022/03/30 01:46:46;;;;;;;6.43;1.63;;;6.00;99.90;;;;;;5092133;28;20052;-61
2022/03/30 01:49:12;;;;;;;2.97;1.35;;;5.80;99.90;;;;;;5090888;28;20091;-61
2022/03/30 01:51:38;;;;;;;3.17;1.27;;;6.30;99.90;;;;;;5091700;28;20093;-61
2022/03/30 01:54:03;;;;;;;4.80;1.10;;;7.60;99.90;;;;;;5091754;28;20051;-61
2022/03/30 01:56:29;;;;;;;2.20;1.02;;;6.20;99.90;;;;;;5095631;28;20094;-62
2022/03/30 01:58:55;;;;;;;2.25;1.08;;;7.50;99.90;;;;;;5095584;28;20044;-62
2022/03/30 02:01:20;;;;;;;2.30;1.05;;;6.00;99.90;;;;;;5095809;28;20093;-61
2022/03/30 02:03:46;;;;;;;3.80;0.95;;;5.70;99.90;;;;;;5094327;28;20048;-61
2022/03/30 02:06:14;;;;;;;5.25;1.10;;;6.00;99.90;;;;;;5095603;28;20105;-62
2022/03/30 02:08:39;;;;;;;2.92;0.90;;;5.80;99.90;;;;;;5094105;28;20487;-62
2022/03/30 02:11:05;;;;;;;1.65;0.70;;;5.90;99.90;;;;;;5095349;28;20046;-61
2022/03/30 02:13:31;;;;;;;1.60;0.65;;;7.10;99.90;;;;;;5095402;28;20101;-61
2022/03/30 02:15:56;;;;;;;6.32;0.98;;;6.20;99.90;;;;;;5095349;28;20048;-61
2022/03/30 02:18:23;;;;;;;3.47;0.70;;;6.00;99.90;;;;;;5095266;28;20571;-61
2022/03/30 02:20:48;;;;;;;1.48;0.70;;;5.70;99.90;;;;;;5095228;28;20048;-61
2022/03/30 02:23:14;;;;;;;2.50;0.73;;;7.60;99.90;;;;;;5093989;28;20050;-61
2022/03/30 02:25:40;;;;;;;0.85;0.70;;;6.40;99.90;;;;;;5095223;28;20044;-61
2022/03/30 02:28:06;;;;;;;5.20;0.73;;;5.70;99.90;;;;;;5095067;28;20059;-61
2022/03/30 02:30:32;;;;;;;2.50;0.70;;;6.50;99.90;;;;;;5093929;28;20044;-61
2022/03/30 02:32:58;;;;;;;3.03;0.70;;;6.60;99.90;;;;;;5093368;28;20060;-61
2022/03/30 02:35:24;;;;;;;1.95;0.65;;;6.20;99.90;;;;;;5094983;28;20060;-61
2022/03/30 02:37:54;;;;;;;1.30;0.65;;;6.30;99.90;;;;;;5094927;28;20058;-62
2022/03/30 02:40:20;;;;;;;3.92;0.80;;;5.90;99.90;;;;;;5095139;28;20154;-61
2022/03/30 02:42:46;;;;;;;1.90;0.90;;;5.20;99.90;;;;;;5094791;28;20119;-62
2022/03/30 02:45:12;;;;;;;1.02;0.93;;;7.50;99.90;;;;;;5094806;28;20079;-61
2022/03/30 02:50:22;;;;;;;2.17;0.70;;;5.90;99.90;;;;;;5094620;28;20047;-61
2022/03/30 02:52:47;;;;;;;6.28;0.82;;;7.10;99.90;;;;;;5094625;28;20051;-61
2022/03/30 02:55:13;;;;;;;3.30;1.27;;;5.60;99.90;;;;;;5094585;28;20040;-60
2022/03/30 02:57:40;;;;;;;4.25;0.85;;;5.70;99.90;;;;;;5094483;28;20514;-62
2022/03/30 03:00:07;;;;;;;5.32;0.90;;;5.40;99.90;;;;;;5094414;28;20044;-62
2022/03/30 03:02:34;;;;;;;1.92;1.02;;;5.50;99.90;;;;;;5094472;28;20052;-61
2022/03/30 03:05:01;;;;;;;5.18;1.05;;;5.60;99.90;;;;;;5094242;28;20083;-62
2022/03/30 03:07:26;;;;;;;;;;;5.40;99.90;;;;;;5094730;28;20089;-61
2022/03/30 03:09:52;;;;;;;4.25;1.10;;;5.30;99.90;;;;;;5094280;28;19924;-61
2022/03/30 03:12:18;;;;;;;5.28;1.27;;;5.40;99.90;;;;;;5094174;28;20028;-61
2022/03/30 03:14:43;;;;;;;1.73;1.05;;;5.40;99.90;;;;;;5093182;28;20052;-61
2022/03/30 03:17:09;;;;;;;5.50;1.20;;;5.50;99.90;;;;;;5094142;28;20048;-61
2022/03/30 03:19:35;;;;;;;2.95;1.17;;;5.20;99.90;;;;;;5094179;28;20381;-62
2022/03/30 03:22:01;;;;;;;3.22;1.20;;;5.40;99.90;;;;;;5094041;28;20388;-62
2022/03/30 03:24:26;;;;;;;1.30;1.13;;;5.00;99.90;;;;;;5093047;28;20044;-61
2022/03/30 03:26:52;;;;;;;7.72;1.35;;;5.70;99.90;;;;;;5093903;28;20040;-61
2022/03/30 03:29:18;;;;;;;3.10;1.15;;;5.30;99.90;;;;;;5093908;28;20080;-61
2022/03/30 03:31:43;;;;;;;2.80;1.42;;;5.40;99.90;;;;;;5093972;28;20040;-61
2022/03/30 03:34:09;;;;;;;2.05;1.30;;;5.50;99.90;;;;;;5093359;28;20060;-61
2022/03/30 03:36:34;;;;;;;5.70;1.50;;;5.30;99.90;;;;;;5092497;28;20056;-61
2022/03/30 03:39:00;;;;;;;3.75;1.17;;;5.50;99.90;;;;;;5093708;28;20063;-62
2022/03/30 03:41:27;;;;;;;6.10;1.60;;;6.50;99.90;;;;;;5093691;28;20437;-61
2022/03/30 03:43:53;;;;;;;6.50;1.70;;;6.40;99.90;;;;;;5093635;28;20522;-61
2022/03/30 03:46:18;;;;;;;6.32;1.58;;;5.60;99.90;;;;;;5093571;28;20044;-62
2022/03/30 03:48:44;;;;;;;4.53;1.60;;;5.60;99.90;;;;;;5093459;28;20196;-62
2022/03/30 03:51:10;;;;;;;4.45;1.60;;;5.60;99.90;;;;;;5092170;28;20098;-61
2022/03/30 03:53:35;;;;;;;5.53;1.55;;;5.50;99.90;;;;;;5093802;28;20070;-63
2022/03/30 03:56:05;;;;;;;5.18;1.50;;;5.90;99.90;;;;;;5093403;28;20044;-61
2022/03/30 03:58:30;;;;;;;7.68;2.00;;;5.40;99.90;;;;;;5092362;28;20051;-61
2022/03/30 04:00:56;;;;;;;3.95;1.50;;;6.50;99.90;;;;;;5092106;28;20480;-61
2022/03/30 04:03:22;;;;;;;2.25;1.50;;;5.10;99.90;;;;;;5093334;28;20133;-61
2022/03/30 04:05:47;;;;;;;4.38;1.80;;;5.40;99.90;;;;;;5093316;28;20044;-61
2022/03/30 04:08:15;;;;;;;5.72;1.77;;;5.10;99.90;;;;;;5092970;28;20048;-62
2022/03/30 04:10:41;;;;;;;5.15;1.77;;;5.30;99.90;;;;;;5093171;28;20044;-62
2022/03/30 04:13:07;;;;;;;2.67;1.90;;;5.20;99.90;;;;;;5093155;28;20048;-61
2022/03/30 04:15:34;;;;;;;4.18;1.65;;;5.10;99.90;;;;;;5093097;28;20393;-61
2022/03/30 04:18:00;;;;;;;3.42;1.55;;;5.40;99.90;;;;;;5092234;28;20487;-61
2022/03/30 04:20:26;;;;;;;3.83;1.65;;;6.60;99.90;;;;;;5093102;28;20101;-61
2022/03/30 04:22:52;;;;;;;4.60;2.08;;;5.20;99.90;;;;;;5092978;28;20040;-61
2022/03/30 04:25:18;;;;;;;3.83;1.55;;;5.30;99.90;;;;;;5092995;28;20078;-61
2022/03/30 04:27:52;;;;;;;10.73;1.77;;;6.60;99.90;;;;;;5092964;28;20067;-61
2022/03/30 04:30:20;;;;;;;6.40;1.70;;;5.60;99.90;;;;;;5092428;28;20130;-61
2022/03/30 04:32:46;;;;;;;4.25;1.52;;;5.60;99.90;;;;;;5092670;28;20056;-62
2022/03/30 04:35:18;;;;;;;5.72;1.70;;;6.20;99.90;;;;;;5091716;28;20052;-61
2022/03/30 04:37:44;;;;;;;6.57;1.83;;;5.20;99.90;;;;;;5092886;28;20120;-61
2022/03/30 04:40:10;;;;;;;7.72;1.70;;;6.10;99.90;;;;;;5092763;28;20044;-61
2022/03/30 04:42:36;;;;;;;3.97;1.40;;;5.40;99.90;;;;;;5092774;28;20048;-63
2022/03/30 04:45:02;;;;;;;9.40;1.65;;;5.10;99.90;;;;;;5074966;28;20125;-61
2022/03/30 04:47:27;;;;;;;8.23;1.70;;;5.30;99.90;;;;;;5092722;28;20040;-61
2022/03/30 04:49:53;;;;;;;4.43;1.58;;;5.40;99.90;;;;;;5092640;28;20392;-61
2022/03/30 04:52:19;;;;;;;5.47;2.15;;;5.50;99.90;;;;;;5074586;28;20123;-61
2022/03/30 04:54:44;;;;;;;7.63;1.92;;;5.40;99.90;;;;;;5091391;28;20048;-61
2022/03/30 04:57:10;;;;;;;4.75;1.50;;;5.20;99.90;;;;;;5092629;28;20044;-61
2022/03/30 04:59:36;;;;;;;7.78;2.17;;;6.30;99.90;;;;;;5092616;28;20052;-61
2022/03/30 05:02:02;;;;;;;6.25;1.75;;;6.60;99.90;;;;;;5092339;28;20055;-61
2022/03/30 05:04:32;;;;;;;4.47;1.92;;;5.40;99.90;;;;;;5091466;28;20056;-61
2022/03/30 05:06:58;;;;;;;5.25;1.85;;;5.30;99.90;;;;;;5092541;28;20044;-61
2022/03/30 05:09:23;;;;;;;5.50;1.60;;;5.20;99.90;;;;;;5091508;28;20048;-61
2022/03/30 05:11:50;;;;;;;11.57;2.00;;;6.40;99.90;;;;;;5092381;28;20044;-61
2022/03/30 05:14:16;;;;;;;7.68;1.75;;;5.20;99.90;;;;;;5092494;28;20490;-61
2022/03/30 05:16:42;;;;;;;10.02;1.90;;;4.90;99.90;;;;;;5092471;28;20044;-62
2022/03/30 05:19:08;;;;;;;8.32;1.92;;;5.00;99.90;;;;;;5091276;28;20047;-61
2022/03/30 05:21:34;;;;;;;8.93;1.77;;;6.00;99.90;;;;;;5091308;28;20052;-62
2022/03/30 05:23:59;;;;;;;6.40;1.70;;;4.90;99.90;;;;;;5092414;28;20051;-61
2022/03/30 05:26:26;;;;;;;7.32;1.60;;;4.90;99.90;;;;;;5091356;28;20044;-61
2022/03/30 05:28:52;;;;;;;5.28;1.58;;;5.10;99.90;;;;;;5092821;28;20055;-62
2022/03/30 05:31:17;;;;;;;7.70;1.80;;;5.10;99.90;;;;;;5096143;28;20047;-61
2022/03/30 05:33:43;;;;;;;6.38;2.13;;;5.70;99.90;;;;;;5095905;28;20540;-61
2022/03/30 05:36:09;;;;;;;5.25;1.60;;;4.90;99.90;;;;;;5096059;28;20468;-61
2022/03/30 05:38:34;;;;;;;5.53;1.50;;;4.90;99.90;;;;;;5096017;28;20048;-61
2022/03/30 05:41:02;;;;;;;4.90;1.50;;;6.60;99.90;;;;;;5095948;28;20052;-61
2022/03/30 05:43:28;;;;;;;11.38;1.60;;;5.00;99.90;;;;;;5094907;28;20522;-61
2022/03/30 05:45:54;;;;;;;8.75;1.83;;;5.00;99.90;;;;;;5094501;28;20048;-67
2022/03/30 05:48:19;;;;;;;8.60;1.67;;;4.80;99.90;;;;;;5090671;28;20054;-61
2022/03/30 05:50:45;;;;;;;6.28;1.70;;;4.60;99.90;;;;;;5095639;28;20044;-61
2022/03/30 05:53:13;;;;;;;7.15;1.95;;;4.50;99.90;;;;;;5094672;28;20040;-61
2022/03/30 05:55:40;;;;;;;10.10;1.85;;;5.00;99.90;;;;;;5094224;28;20097;-61
2022/03/30 05:58:06;;;;;;;5.85;1.67;;;4.80;99.90;;;;;;5092465;28;20620;-68
2022/03/30 06:00:32;;;;;;;8.00;1.70;;;4.80;99.90;;;;;;5092083;28;20051;-62
2022/03/30 06:02:58;;;;;;;7.57;1.50;;;5.30;99.90;;;;;;5075883;28;20044;-61
2022/03/30 06:05:24;;;;;;;8.15;1.60;;;5.00;99.90;;;;;;5093182;28;20123;-61
2022/03/30 06:07:49;;;;;;;8.27;1.83;;;4.90;99.90;;;;;;5093995;28;20054;-62
2022/03/30 06:10:16;;;;;;;5.97;1.63;;;4.80;99.90;;;;;;5094406;28;20471;-67
2022/03/30 06:12:45;;;;;;;5.88;1.50;;;5.60;99.90;;;;;;5090199;28;20502;-61
2022/03/30 06:15:10;;;;;;;4.72;1.60;;;5.00;99.90;;;;;;5093842;28;20043;-61
2022/03/30 06:17:36;;;;;;;4.15;1.27;;;5.10;99.90;;;;;;5094223;28;20377;-61
2022/03/30 06:20:03;;;;;;;6.60;1.50;;;4.90;99.90;;;;;;5093976;28;20373;-61
2022/03/30 06:22:30;;;;;;;6.45;1.55;;;5.10;99.90;;;;;;5091789;28;20411;-61
2022/03/30 06:24:58;;;;;;;4.68;1.50;;;6.40;99.90;;;;;;5094370;28;20044;-61
2022/03/30 06:27:23;;;;;;;5.72;1.25;;;5.50;99.90;;;;;;5094153;28;20124;-61
2022/03/30 06:29:49;;;;;;;2.33;1.17;;;5.40;99.90;;;;;;5093751;28;20122;-61
2022/03/30 06:32:15;;;;;;;4.35;1.00;;;5.80;99.90;;;;;;5093636;28;20032;-63
2022/03/30 06:34:40;;;;;;;2.95;1.20;;;5.70;99.90;;;;;;5093702;28;20105;-60
2022/03/30 06:37:06;;;;;;;2.88;1.27;;;5.60;99.90;;;;;;5095026;28;20056;-62
2022/03/30 06:39:35;;;;;;;5.07;1.90;;;5.30;99.90;;;;;;5094514;28;20040;-61
2022/03/30 06:42:03;;;;;;;8.60;1.40;;;5.60;99.90;;;;;;5094897;28;20085;-61
2022/03/30 06:44:31;;;;;;;3.55;1.30;;;5.40;99.90;;;;;;5094781;28;20048;-61
2022/03/30 06:46:57;;;;;;;5.47;1.20;;;5.80;99.90;;;;;;5094788;28;20048;-61
2022/03/30 06:49:23;;;;;;;;;;;7.00;99.90;;;;;;5094753;28;20062;-61
2022/03/30 06:51:49;;;;;;;3.83;1.30;;;6.00;99.90;;;;;;5094232;28;19920;-61
2022/03/30 06:54:15;;;;;;;9.10;1.60;;;5.90;99.90;;;;;;5094259;28;20040;-61
2022/03/30 06:56:41;;;;;;;5.85;1.50;;;5.90;99.90;;;;;;5094221;28;20044;-61
2022/03/30 06:59:06;;;;;;;5.75;1.20;;;5.80;99.90;;;;;;5094556;28;20105;-61
2022/03/30 07:01:33;;;;;;;5.53;1.35;;;6.30;99.90;;;;;;5094529;28;20040;-61
2022/03/30 07:03:58;;;;;;;5.78;1.65;;;6.50;99.90;;;;;;5094474;28;20052;-61
2022/03/30 07:06:24;;;;;;;7.35;1.88;;;7.40;99.90;;;;;;5094427;28;20043;-61
2022/03/30 07:11:34;;;;;;;3.47;1.10;;;6.70;99.90;;;;;;5094238;28;20074;-61
2022/03/30 07:13:59;;;;;;;4.90;1.17;;;6.60;99.90;;;;;;5094254;28;20048;-61
2022/03/30 07:16:25;;;;;;;5.15;1.27;;;6.40;99.90;;;;;;5094273;28;20048;-61
2022/03/30 07:18:53;;;;;;;8.63;1.35;;;6.70;99.90;;;;;;5094168;28;20442;-61
2022/03/30 07:21:19;;;;;;;8.18;1.48;;;6.40;99.90;;;;;;5094097;28;20044;-61
2022/03/30 07:23:45;;;;;;;7.28;1.60;;;6.80;99.90;;;;;;5094011;28;20055;-61
2022/03/30 07:26:11;;;;;;;8.10;1.30;;;7.60;99.90;;;;;;5093952;28;20047;-61
2022/03/30 07:28:37;;;;;;;5.32;1.45;;;7.60;99.90;;;;;;5093890;28;20051;-61
2022/03/30 07:31:03;;;;;;;7.07;1.40;;;7.00;99.90;;;;;;5093764;28;20040;-61
2022/03/30 07:33:32;;;;;;;;;;;6.70;99.90;;;;;;5094040;28;20056;-61
2022/03/30 07:35:58;;;;;;;4.82;1.10;;;7.90;99.90;;;;;;5093667;28;20015;-61
2022/03/30 07:38:24;;;;;;;5.50;1.35;;;6.70;99.90;;;;;;5093781;28;20051;-62
2022/03/30 07:40:50;;;;;;;3.88;1.05;;;6.30;99.90;;;;;;5093750;28;20138;-61
2022/03/30 07:43:17;;;;;;;7.13;1.08;;;6.50;99.90;;;;;;5093724;28;20392;-61
2022/03/30 07:45:43;;;;;;;6.65;1.17;;;6.10;99.90;;;;;;5093644;28;20106;-62
2022/03/30 07:48:10;;;;;;;6.82;0.93;;;6.70;99.90;;;;;;5093364;28;20487;-61
2022/03/30 07:50:36;;;;;;;5.25;1.38;;;6.30;99.90;;;;;;5093522;28;20040;-61
2022/03/30 07:53:02;;;;;;;3.97;1.20;;;6.40;99.90;;;;;;5092854;28;20040;-61
2022/03/30 07:55:29;;;;;;;6.25;1.17;;;7.10;99.90;;;;;;5093472;28;20134;-63
2022/03/30 07:57:55;;;;;;;2.92;1.00;;;6.10;99.90;;;;;;5093561;28;20047;-61
2022/03/30 08:00:21;;;;;;;;;;;6.50;99.90;;;;;;5093811;28;20052;-61
2022/03/30 08:02:48;;;;;;;3.40;1.23;;;6.60;99.90;;;;;;5093077;28;20272;-61
2022/03/30 08:05:15;;;;;;;3.08;0.88;;;6.60;99.90;;;;;;5093300;28;20055;-62
2022/03/30 08:07:43;;;;;;;3.88;1.25;;;6.50;99.90;;;;;;5093265;28;20040;-61
2022/03/30 08:10:09;;;;;;;3.88;1.05;;;6.50;99.90;;;;;;5093295;28;20416;-62
2022/03/30 08:12:35;;;;;;;;;;;6.60;99.90;;;;;;5093644;28;20044;-61
2022/03/30 08:15:01;;;;;;;3.00;0.80;;;6.60;99.90;;;;;;5091933;28;19920;-61
2022/03/30 08:17:27;;;;;;;4.65;1.08;;;7.00;99.90;;;;;;5093013;28;20097;-61
2022/03/30 08:19:54;;;;;;;3.85;0.90;;;7.10;99.90;;;;;;5092995;28;20044;-60
2022/03/30 08:22:25;;;;;;;5.55;1.10;;;7.40;99.90;;;;;;5093084;28;20087;-61
2022/03/30 08:24:53;;;;;;;4.25;1.13;;;8.10;99.90;;;;;;5092961;28;20131;-61
2022/03/30 08:27:21;;;;;;;2.70;0.90;;;7.50;99.90;;;;;;5092989;28;20533;-61
2022/03/30 08:29:48;;;;;;;7.57;0.90;;;6.80;99.90;;;;;;5092881;28;20091;-61
2022/03/30 08:32:16;;;;;;;3.97;1.08;;;6.70;99.90;;;;;;5092866;28;20054;-63
2022/03/30 08:34:42;;;;;;;2.83;1.10;;;6.60;99.90;;;;;;5092879;28;20064;-61
2022/03/30 08:37:09;;;;;;;3.40;0.90;;;8.30;99.90;;;;;;5092841;28;20123;-61
2022/03/30 08:39:35;;;;;;;3.75;1.10;;;6.90;99.90;;;;;;5092835;28;20091;-61
2022/03/30 08:42:05;;;;;;;6.55;1.05;;;7.10;99.90;;;;;;5092861;28;20408;-61
2022/03/30 08:44:33;;;;;;;6.35;2.47;;;7.30;99.90;;;;;;5091718;28;20105;-61
2022/03/30 08:47:00;;;;;;;7.35;1.13;;;7.30;99.90;;;;;;5092666;28;20051;-61
2022/03/30 08:49:27;;;;;;;7.20;1.13;;;7.80;99.90;;;;;;5092735;28;20131;-61
2022/03/30 08:51:54;;;;;;;3.08;1.30;;;8.70;99.90;;;;;;5092562;28;20098;-61
2022/03/30 08:54:21;;;;;;;7.70;1.10;;;7.30;99.90;;;;;;5092562;28;20058;-61
2022/03/30 08:56:46;;;;;;;;;;;8.10;99.90;;;;;;5092992;28;20040;-61
2022/03/30 08:59:17;;;;;;;7.15;1.17;;;8.10;99.90;;;;;;5092677;28;19926;-61
2022/03/30 09:01:43;;;;;;;6.93;1.10;;;8.20;99.90;;;;;;5092638;28;20127;-61
2022/03/30 09:04:12;;;;;;;4.85;1.00;;;7.20;99.90;;;;;;5095338;28;20496;-61
2022/03/30 09:06:51;;;;;;;6.10;1.10;;;8.40;99.90;;;;;;5096398;28;20488;-61
2022/03/30 09:09:28;;;;;;;5.85;1.20;;;7.20;99.90;;;;;;5096702;28;20039;-61
2022/03/30 09:11:55;;;;;;;7.72;1.10;;;8.00;99.90;;;;;;5096604;28;20119;-62
2022/03/30 09:14:25;;;;;;;4.40;0.88;;;7.10;99.90;;;;;;5096572;28;20186;-61
2022/03/30 09:16:54;;;;;;;5.65;1.00;;;7.30;99.90;;;;;;5096852;28;20408;-61
2022/03/30 09:19:21;;;;;;;3.10;1.08;;;7.50;99.90;;;;;;5096494;28;20181;-61
2022/03/30 09:21:49;;;;;;;5.38;1.08;;;7.00;99.90;;;;;;5096401;28;20032;-61
2022/03/30 09:24:18;;;;;;;6.35;1.00;;;6.90;99.90;;;;;;5096389;28;20047;-61
2022/03/30 09:26:44;;;;;;;1.50;0.70;;;8.70;99.90;;;;;;5096053;28;20412;-61
2022/03/30 09:29:11;;;;;;;5.20;1.13;;;8.60;99.90;;;;;;5096284;28;20058;-62
2022/03/30 09:31:39;;;;;;;6.25;1.10;;;8.70;99.90;;;;;;5094439;28;20046;-69
2022/03/30 09:34:06;;;;;;;2.33;0.80;;;7.90;99.90;;;;;;5093182;28;20056;-62
2022/03/30 09:36:39;;;;;;;3.88;1.00;;;9.30;99.90;;;;;;5095716;28;20059;-61
2022/03/30 09:39:06;;;;;;;2.78;0.90;;;8.90;99.90;;;;;;5096194;28;20131;-61
2022/03/30 09:41:45;;;;;;;4.35;1.00;;;8.30;99.90;;;;;;5096067;28;20044;-61
2022/03/30 09:44:11;;;;;;;5.47;0.93;;;8.60;99.90;;;;;;5096002;28;20047;-61
2022/03/30 09:46:52;;;;;;;5.22;1.10;;;8.50;99.90;;;;;;5096017;28;20403;-61
2022/03/30 09:49:41;;;;;;;6.00;1.23;;;9.50;99.90;;;;;;5096048;28;20126;-61
2022/03/30 09:52:19;;;;;;;2.53;1.20;;;8.70;99.90;;;;;;5095813;28;20036;-61
2022/03/30 09:54:49;;;;;;;3.05;1.02;;;9.70;99.90;;;;;;5094541;28;20048;-61
2022/03/30 09:57:26;;;;;;;1.63;0.80;;;8.30;99.90;;;;;;5095636;28;20547;-62
2022/03/30 10:00:02;;;;;;;3.05;0.82;;;9.10;99.90;;;;;;5077698;28;20059;-61
2022/03/30 10:02:31;;;;;;;8.52;1.60;;;9.60;99.90;;;;;;5094600;28;20066;-61
2022/03/30 10:04:57;;;;;;;4.40;1.00;;;8.40;99.90;;;;;;5095955;28;20131;-61
2022/03/30 10:07:23;;;;;;;4.50;1.13;;;9.70;99.90;;;;;;5094430;28;20044;-61
2022/03/30 10:09:49;;;;;;;3.08;0.85;;;9.00;99.90;;;;;;5095545;28;20056;-61
2022/03/30 10:12:17;;;;;;;;;;;8.60;99.90;;;;;;5095903;28;20048;-61
2022/03/30 10:14:45;;;;;;;3.45;1.20;;;9.00;99.90;;;;;;5093944;28;19926;-61
2022/03/30 10:17:11;;;;;;;4.95;1.00;;;8.40;99.90;;;;;;5095365;28;20048;-61
2022/03/30 10:19:40;;;;;;;;;;;9.60;99.90;;;;;;5095797;28;20048;-61
2022/03/30 10:22:28;;;;;;;4.68;1.25;;;9.70;99.90;;;;;;5095361;28;20334;-61
2022/03/30 10:25:18;;;;;;;9.38;1.33;;;8.60;99.90;;;;;;5095625;28;20067;-61
2022/03/30 10:28:30;;;;;;;4.10;0.90;;;8.30;99.90;;;;;;5095253;28;20054;-61
2022/03/30 10:30:57;;;;;;;5.60;0.98;;;8.80;99.90;;;;;;5084782;28;20052;-61
2022/03/30 10:33:36;;;;;;;3.55;1.00;;;8.50;99.90;;;;;;5094813;28;20059;-60
2022/03/30 10:36:26;;;;;;;3.10;1.13;;;8.80;99.90;;;;;;5095064;28;20044;-61
2022/03/30 10:39:24;;;;;;;2.28;0.80;;;8.70;99.90;;;;;;5094982;28;20079;-61
2022/03/30 10:41:53;;;;;;;5.35;0.95;;;8.90;99.90;;;;;;5094914;28;20052;-62
2022/03/30 10:44:35;;;;;;;4.05;1.30;;;9.50;99.90;;;;;;5094820;28;20101;-61
2022/03/30 10:47:23;;;;;;;2.83;0.80;;;8.50;99.90;;;;;;5094610;28;20051;-61
2022/03/30 10:49:51;;;;;;;3.28;1.25;;;8.80;99.90;;;;;;5094786;28;20059;-61
2022/03/30 10:52:35;;;;;;;9.93;1.95;;;8.70;99.90;;;;;;5090410;28;20098;-61
2022/03/30 10:55:28;;;;;;;3.63;0.90;;;8.80;99.90;;;;;;5093674;28;20056;-63
2022/03/30 10:58:01;;;;;;;3.10;1.20;;;8.40;99.90;;;;;;5087755;28;20420;-61
2022/03/30 11:00:34;;;;;;;3.55;1.20;;;8.50;99.90;;;;;;5093130;28;20050;-61
2022/03/30 11:03:17;;;;;;;5.50;1.10;;;8.20;99.90;;;;;;5093384;28;20603;-61
2022/03/30 11:05:59;;;;;;;3.05;0.90;;;8.00;99.90;;;;;;5089259;28;20032;-62
2022/03/30 11:08:33;;;;;;;3.53;1.02;;;9.10;99.90;;;;;;5094269;28;20132;-61
2022/03/30 11:11:19;;;;;;;5.38;1.00;;;8.20;99.90;;;;;;5093940;28;20510;-61
2022/03/30 11:13:45;;;;;;;4.82;1.50;;;8.40;99.90;;;;;;5094292;28;20083;-61
2022/03/30 11:16:14;;;;;;;4.25;1.00;;;8.70;99.90;;;;;;5094266;28;20148;-62
2022/03/30 11:18:57;;;;;;;4.47;0.95;;;9.20;99.90;;;;;;5093867;28;20480;-61
2022/03/30 11:21:24;;;;;;;3.63;1.00;;;8.70;99.90;;;;;;5094162;28;20097;-61
2022/03/30 11:24:17;;;;;;;2.75;1.00;;;8.30;99.90;;;;;;5094043;28;20048;-61
2022/03/30 11:26:49;;;;;;;5.82;1.20;;;8.30;99.90;;;;;;5094036;28;20048;-62
2022/03/30 11:29:53;;;;;;;5.55;1.02;;;9.20;99.90;;;;;;5093993;28;20040;-61
2022/03/30 11:32:32;;;;;;;2.70;0.93;;;8.80;99.90;;;;;;5093883;28;20051;-60
2022/03/30 11:35:04;;;;;;;5.47;1.00;;;8.60;99.90;;;;;;5093522;28;20070;-61
2022/03/30 11:37:42;;;;;;;5.60;1.00;;;8.10;99.90;;;;;;5093889;28;20125;-60
2022/03/30 11:40:11;;;;;;;4.38;1.10;;;8.30;99.90;;;;;;5093794;28;20044;-61
2022/03/30 11:42:40;;;;;;;3.72;0.80;;;7.90;99.90;;;;;;5093752;28;20050;-61
2022/03/30 11:45:13;;;;;;;3.50;1.02;;;8.60;99.90;;;;;;5093690;28;20396;-61
2022/03/30 11:47:44;;;;;;;5.90;1.10;;;8.10;99.90;;;;;;5092503;28;20044;-61
2022/03/30 11:50:11;;;;;;;2.83;0.90;;;8.10;99.90;;;;;;5093559;28;20044;-61
2022/03/30 11:52:37;;;;;;;1.77;1.05;;;9.50;99.90;;;;;;5093170;28;20507;-60
2022/03/30 11:55:03;;;;;;;5.97;1.20;;;8.20;99.90;;;;;;5093534;28;20048;-61
2022/03/30 11:57:29;;;;;;;4.45;0.90;;;7.90;99.90;;;;;;5093482;28;20044;-61
2022/03/30 11:59:56;;;;;;;4.15;1.15;;;9.10;99.90;;;;;;5093463;28;20341;-61
2022/03/30 12:02:24;;;;;;;3.83;1.25;;;8.20;99.90;;;;;;5093378;28;20040;-61
2022/03/30 12:04:50;;;;;;;5.60;1.13;;;8.20;99.90;;;;;;5093261;28;20048;-61
2022/03/30 12:07:19;;;;;;;5.75;1.27;;;8.50;99.90;;;;;;5093316;28;20052;-60
2022/03/30 12:09:53;;;;;;;3.95;1.45;;;8.60;99.90;;;;;;5092975;28;20492;-61
2022/03/30 12:12:36;;;;;;;3.22;1.00;;;9.00;99.90;;;;;;5093134;28;20082;-60
2022/03/30 12:15:06;;;;;;;5.68;1.20;;;7.80;99.90;;;;;;5093263;28;20056;-61
2022/03/30 12:17:33;;;;;;;4.15;1.20;;;8.20;99.90;;;;;;5091625;28;20071;-63
2022/03/30 12:20:00;;;;;;;5.10;1.25;;;8.50;99.90;;;;;;5092117;28;20407;-61
2022/03/30 12:22:26;;;;;;;2.33;1.10;;;8.70;99.90;;;;;;5092733;28;20129;-61
2022/03/30 12:24:52;;;;;;;5.82;1.10;;;10.00;99.90;;;;;;5092615;28;20059;-62
2022/03/30 12:27:18;;;;;;;3.08;1.17;;;9.10;99.90;;;;;;5092539;28;20504;-61
2022/03/30 12:29:44;;;;;;;4.25;1.10;;;9.10;99.90;;;;;;5092974;28;20043;-61
2022/03/30 12:32:13;;;;;;;4.05;1.10;;;9.70;99.90;;;;;;5092846;28;20040;-61
2022/03/30 12:34:40;;;;;;;5.03;1.33;;;8.80;99.90;;;;;;5092530;28;20142;-61
2022/03/30 12:37:08;;;;;;;3.30;1.05;;;9.20;99.90;;;;;;5092902;28;20403;-61
2022/03/30 12:39:40;;;;;;;8.77;1.33;;;9.10;99.90;;;;;;5092512;28;20052;-61
2022/03/30 12:42:11;;;;;;;6.28;1.50;;;9.00;99.90;;;;;;5092865;28;20127;-61
2022/03/30 12:44:39;;;;;;;3.92;1.13;;;9.00;99.90;;;;;;5092777;28;20207;-61
2022/03/30 12:47:15;;;;;;;5.57;1.10;;;9.20;99.90;;;;;;5092766;28;20132;-61
2022/03/30 12:49:42;;;;;;;4.65;1.90;;;9.50;99.90;;;;;;5092792;28;20076;-61
2022/03/30 12:52:08;;;;;;;4.22;1.13;;;10.00;99.90;;;;;;5092613;28;20101;-61
2022/03/30 12:54:34;;;;;;;4.85;1.30;;;10.60;99.90;;;;;;5092615;28;20056;-61
2022/03/30 12:56:59;;;;;;;6.47;1.52;;;10.60;99.90;;;;;;5092682;28;20051;-61
2022/03/30 12:59:25;;;;;;;7.43;1.73;;;9.80;99.90;;;;;;5092759;28;20484;-60
2022/03/30 13:01:51;;;;;;;15.75;8.65;;;9.90;99.90;;;;;;5092636;28;20079;-61
2022/03/30 13:04:30;;;;;;;5.20;1.35;;;10.00;99.90;;;;;;5092639;28;20075;-61
2022/03/30 13:07:13;;;;;;;6.57;1.20;;;9.90;99.90;;;;;;5092598;28;20074;-63
2022/03/30 13:10:01;;;;;;;9.27;1.30;;;9.60;99.90;;;;;;5092560;28;20475;-61
2022/03/30 13:12:38;;;;;;;4.68;1.05;;;10.10;99.90;;;;;;5092526;28;20056;-61